Terminal Aerodrome Forecast
Issued by NWS

Home | Current Version | Previous Version | Text Only | Print | Product List | Glossary On
Versions: 1 2 3 4 5 6 7 8 9 10 11 12 13 14 15 16 17 18 19 20 21 22 23 24
541
FTUS46 KSGX 301123
TAFSAN
TAF
KSAN 301123Z 3012/3118 16004KT P6SM FEW012
     FM301800 23008KT P6SM SKC
     FM310200 VRB04KT P6SM FEW015
     FM310900 VRB03KT P6SM BKN014
     FM311600 22005KT P6SM FEW015=

USA.gov is the U.S. government's official web portal to all federal, state and local government web resources and services.